• Join FlightAware (Why Join?)
  • Login
  • US Flag 
07:51AM EDT


 

Airport Tracker/Info


-or-


 

Live Flight TrackerFlight Track Log ✈ N93XP ✈ 02-Nov-2013 ✈ KFLL - KJSO

Flight Track Log - Related Links

Times and Time Zones

All times are in EDT time to prevent confusion due to time zone crossing. See the N93XP flight status page for this flight to view local times or setup timezone preferences in your user account.

Time Position Orientation Groundspeed Altitude Reporting Facility
EDT Latitude Longitude Course Direction KTS MPH feet Rate Location/Type
07:01PM 26.0719 -80.1758 269° West 162 186 1,000  Level Miami Center
07:02PM 26.0711 -80.2175 269° West 202 232 2,900 2,280 Climbing Miami Center
07:03PM 26.0778 -80.2869 276° West 259 298 5,000 1,980 Climbing Miami Center
07:04PM 26.1117 -80.3575 298° West 263 303 6,900 2,220 Climbing Miami Center
07:04PM 26.1258 -80.3764 310° West 267 307 7,900 2,880 Climbing Miami Center
07:05PM 26.1556 -80.4419 297° West 272 313 10,600 2,100 Climbing Miami Center
07:06PM 26.1892 -80.5194 296° West 272 313 12,200 1,500 Climbing Miami Center
07:07PM 26.2286 -80.6064 297° West 286 329 13,700 1,440 Climbing Miami Center
07:08PM 26.3003 -80.6619 325° Northwest 300 345 15,100 1,500 Climbing Miami Center
07:09PM 26.3742 -80.7083 331° Northwest 336 387 16,800 1,620 Climbing Miami Center
07:10PM 26.4667 -80.7669 330° Northwest 341 392 18,400 1,500 Climbing Miami Center
07:11PM 26.5469 -80.8139 332° Northwest 351 404 19,800 1,380 Climbing Miami Center
07:12PM 26.6311 -80.8678 330° Northwest 345 397 21,200 1,500 Climbing Miami Center
07:13PM 26.7167 -80.9428 322° Northwest 355 409 22,800 1,380 Climbing Miami Center
07:14PM 26.7961 -81.0083 324° Northwest 355 409 24,000 1,140 Climbing Miami Center
07:15PM 26.8656 -81.0642 324° Northwest 355 409 25,100 1,080 Climbing Miami Center
07:16PM 26.9450 -81.1300 324° Northwest 355 409 26,200 1,020 Climbing Miami Center
07:17PM 27.0225 -81.1958 323° Northwest 355 409 27,200 960 Climbing Miami Center
07:18PM 27.1119 -81.2714 323° Northwest 360 414 28,200 960 Climbing Miami Center
07:19PM 27.1975 -81.3425 324° Northwest 365 420 29,200 900 Climbing Miami Center
07:20PM 27.2728 -81.4061 323° Northwest 379 436 30,100 900 Climbing Miami Center
07:21PM 27.3561 -81.4772 323° Northwest 379 436 31,000 960 Climbing Miami Center
07:22PM 27.4517 -81.5558 324° Northwest 379 436 32,100 960 Climbing Miami Center
07:23PM 27.5350 -81.6294 322° Northwest 379 436 33,000 900 Climbing Miami Center
07:24PM 27.6203 -81.7011 323° Northwest 379 436 33,900 840 Climbing Miami Center
07:26PM 27.7678 -81.8208 324° Northwest 387 445 35,500 840 Climbing Jacksonville Center
07:27PM 27.8539 -81.8928 324° Northwest 387 445 36,400 840 Climbing Jacksonville Center
07:28PM 27.9317 -81.9647 321° Northwest 380 437 37,200 600 Climbing Jacksonville Center
07:29PM 28.0114 -82.0344 322° Northwest 369 425 37,700 360 Climbing Jacksonville Center
07:30PM 28.0911 -82.1067 321° Northwest 369 425 38,000 120 Climbing Jacksonville Center
07:31PM 28.1750 -82.1814 322° Northwest 375 432 38,000  Level Jacksonville Center
07:32PM 28.2589 -82.2564 322° Northwest 375 432 38,000  Level Jacksonville Center
07:33PM 28.3450 -82.3336 322° Northwest 380 437 38,000  Level Jacksonville Center
07:34PM 28.4308 -82.4086 322° Northwest 380 437 38,000  Level Jacksonville Center
07:35PM 28.5167 -82.4886 321° Northwest 386 444 38,000  Level Jacksonville Center
07:36PM 28.6044 -82.5686 321° Northwest 397 457 38,000  Level Jacksonville Center
07:37PM 28.6986 -82.6536 322° Northwest 402 463 38,000  Level Jacksonville Center
07:38PM 28.7800 -82.7386 318° Northwest 402 463 38,000  Level Jacksonville Center
07:39PM 28.8261 -82.8522 295° West 395 455 38,000  Level Jacksonville Center
07:40PM 28.8636 -82.9683 290° West 390 449 38,000  Level Jacksonville Center
07:41PM 28.8969 -83.0894 287° West 390 449 38,000  Level Jacksonville Center
07:42PM 28.9300 -83.1939 290° West 395 455 38,000  Level Jacksonville Center
07:43PM 28.9672 -83.3150 289° West 395 455 38,000  Level Jacksonville Center
07:44PM 29.0044 -83.4386 289° West 405 466 38,000  Level Jacksonville Center
07:45PM 29.0394 -83.5622 288° West 405 466 38,000 -60 Level Jacksonville Center
07:46PM 29.0761 -83.6839 289° West 405 466 37,900  Descending Jacksonville Center
07:47PM 29.1131 -83.8075 289° West 405 466 38,000  Climbing Jacksonville Center
07:48PM 29.1494 -83.9317 289° West 405 466 38,000  Level Jacksonville Center
07:49PM 29.1819 -84.0508 287° West 405 466 38,000  Level Jacksonville Center
07:50PM 29.2183 -84.1750 289° West 400 460 38,000  Level Jacksonville Center
07:51PM 29.2547 -84.2922 290° West 400 460 38,000  Level Jacksonville Center
07:52PM 29.2889 -84.4142 288° West 400 460 38,000  Level Jacksonville Center
07:53PM 29.3267 -84.5481 288° West 400 460 38,000  Level Jacksonville Center
07:54PM 29.3628 -84.6678 289° West 400 460 38,000  Level Jacksonville Center
07:55PM 29.3964 -84.7900 288° West 400 460 38,000  Level Jacksonville Center
07:56PM 29.4300 -84.9122 288° West 400 460 38,000  Level Jacksonville Center
07:57PM 29.4678 -85.0322 290° West 400 460 38,000  Level Jacksonville Center
07:58PM 29.5011 -85.1547 287° West 400 460 38,000  Level Jacksonville Center
07:59PM 29.5344 -85.2747 288° West 400 460 38,000  Level Jacksonville Center
08:00PM 29.5639 -85.3806 288° West 400 460 38,000  Level Jacksonville Center
08:01PM 29.5969 -85.5031 287° West 400 460 38,000  Level Jacksonville Center
08:02PM 29.6297 -85.6258 287° West 400 460 38,000  Level Jacksonville Center
08:03PM 29.6625 -85.7464 287° West 400 460 38,000  Level Jacksonville Center
08:04PM 29.6975 -85.8667 289° West 400 460 38,000  Level Jacksonville Center
08:05PM 29.7322 -85.9875 288° West 400 460 38,000  Level Jacksonville Center
08:06PM 29.7644 -86.1106 287° West 400 460 38,000  Level Jacksonville Center
08:07PM 29.7989 -86.2336 288° West 400 460 38,000  Level Jacksonville Center
08:08PM 29.8314 -86.3519 288° West 400 460 38,000  Level Jacksonville Center
08:09PM 29.8633 -86.4753 287° West 400 460 38,000  Level Jacksonville Center
08:10PM 29.8994 -86.6011 288° West 400 460 38,000  Level Jacksonville Center
08:11PM 29.9314 -86.7222 287° West 400 460 38,000  Level Jacksonville Center
08:12PM 29.9631 -86.8458 287° West 400 460 38,000  Level Jacksonville Center
08:13PM 29.9967 -86.9719 287° West 400 460 38,000  Level Jacksonville Center
08:15PM 30.0536 -87.1917 287° West 405 466 38,000  Level Houston Center
08:16PM 30.0872 -87.3158 287° West 405 466 38,000  Level Houston Center
08:17PM 30.1236 -87.4603 286° West 406 467 38,000  Level Houston Center
08:18PM 30.1567 -87.5850 287° West 407 468 38,000  Level Houston Center
08:19PM 30.1875 -87.7103 286° West 406 467 38,000  Level Houston Center
08:20PM 30.2200 -87.8342 287° West 404 465 38,000  Level Houston Center
08:21PM 30.2500 -87.9589 286° West 402 463 38,000  Level Houston Center
08:22PM 30.2825 -88.0836 287° West 404 465 38,000  Level Houston Center
08:23PM 30.3133 -88.2086 286° West 403 464 38,000  Level Houston Center
08:24PM 30.3453 -88.3325 287° West 402 463 38,000  Level Houston Center
08:25PM 30.3756 -88.4581 286° West 403 464 38,000  Level Houston Center
08:26PM 30.4069 -88.5831 286° West 404 465 38,000  Level Houston Center
08:27PM 30.4375 -88.7086 286° West 404 465 38,000  Level Houston Center
08:28PM 30.4756 -88.8594 286° West 405 466 38,000  Level Houston Center
08:29PM 30.5028 -88.9703 286° West 405 466 38,000  Level Houston Center
08:30PM 30.5353 -89.0942 287° West 405 466 38,000  Level Houston Center
08:31PM 30.5672 -89.2189 287° West 405 466 38,000  Level Houston Center
08:32PM 30.6028 -89.3717 285° West 410 472 38,000  Level Houston Center
08:33PM 30.6333 -89.4978 286° West 410 472 38,000  Level Houston Center
08:34PM 30.6639 -89.6250 286° West 412 474 38,000  Level Houston Center
08:35PM 30.6942 -89.7497 286° West 408 470 38,000  Level Houston Center
08:36PM 30.7239 -89.8753 285° West 408 470 38,000  Level Houston Center
08:37PM 30.7544 -90.0008 286° West 408 470 38,000  Level Houston Center
08:38PM 30.7833 -90.1258 285° West 404 465 38,000  Level Houston Center
08:39PM 30.8139 -90.2514 286° West 405 466 38,000  Level Houston Center
08:40PM 30.8486 -90.4017 285° West 404 465 38,000  Level Houston Center
08:41PM 30.8772 -90.5278 285° West 404 465 38,000  Level Houston Center
08:42PM 30.9050 -90.6542 284° West 405 466 38,000  Level Houston Center
08:43PM 30.9347 -90.7803 285° West 404 465 38,000  Level Houston Center
08:44PM 30.9642 -90.9064 285° West 404 465 38,000  Level Houston Center
08:45PM 30.9925 -91.0328 285° West 405 466 38,000  Level Houston Center
08:46PM 31.0222 -91.1581 286° West 403 464 38,000  Level Houston Center
08:47PM 31.0503 -91.2844 285° West 403 464 38,000  Level Houston Center
08:48PM 31.0817 -91.4261 285° West 403 464 38,000  Level Houston Center
08:49PM 31.1103 -91.5531 285° West 404 465 38,000  Level Houston Center
08:50PM 31.1381 -91.6806 284° West 405 466 38,000  Level Houston Center
08:51PM 31.1658 -91.8067 284° West 404 465 38,000  Level Houston Center
08:52PM 31.1936 -91.9339 284° West 404 465 38,000  Level Houston Center
08:54PM 31.2217 -92.0594 285° West 403 464 38,000  Level Houston Center
08:55PM 31.2497 -92.1867 284° West 404 465 38,000  Level Houston Center
08:56PM 31.2769 -92.3128 284° West 403 464 38,000  Level Houston Center
08:57PM 31.3053 -92.4392 285° West 403 464 38,000  Level Houston Center
08:58PM 31.3319 -92.5661 284° West 404 465 38,000  Level Houston Center
08:59PM 31.3589 -92.6933 284° West 404 465 38,000  Level Houston Center
09:00PM 31.3914 -92.8444 284° West 401 461 38,000  Level Houston Center
09:01PM 31.4178 -92.9714 284° West 402 463 38,000 -960 Level Houston Center
09:02PM 31.4447 -93.0975 284° West 401 461 36,100 -2,040 Descending Houston Center
09:03PM 31.4700 -93.2197 284° West 391 450 33,900 -2,040 Descending Houston Center
09:04PM 31.4928 -93.3317 283° West 384 442 32,000 -2,040 Descending Houston Center
09:05PM 31.5175 -93.4519 284° West 381 438 29,800 -2,100 Descending Houston Center
09:06PM 31.5436 -93.5750 284° West 389 448 27,800 -2,160 Descending Houston Center
09:07PM 31.5733 -93.7253 283° West 400 460 25,500 -2,160 Descending Houston Center
09:08PM 31.6003 -93.8564 284° West 413 475 23,500 -1,920 Descending Houston Center
09:09PM 31.6267 -93.9869 283° West 412 474 21,600 -2,040 Descending Houston Center
09:10PM 31.6506 -94.1086 283° West 392 451 19,500 -2,040 Descending Houston Center
09:11PM 31.6747 -94.2281 283° West 381 438 17,500 -2,280 Descending Houston Center
09:12PM 31.6981 -94.3469 283° West 368 423 14,900 -2,520 Descending Houston Center
09:13PM 31.7147 -94.4322 283° West 356 410 12,900 -2,520 Descending Houston Center
09:14PM 31.7369 -94.5436 283° West 352 405 10,400 -1,800 Descending Houston Center
09:15PM 31.7553 -94.6383 283° West 296 341 9,300 -1,200 Descending Houston Center
09:16PM 31.7719 -94.7186 284° West 258 297 8,000 -1,140 Descending Houston Center
09:18PM 31.8039 -94.8808 283° West 220 253 5,600 -1,080 Descending Fort Worth Center
09:19PM 31.8114 -94.9492 277° West 214 246 4,600 -960 Descending Fort Worth Center
09:20PM 31.8169 -95.0150 276° West 214 246 3,700 -960 Descending Fort Worth Center